Miniplon — FIDV — position and weather

sailwx.info

Track history (hours):
 
Tides and Currents Weather Stations Pressure Air Temp Water Temp Dewpoint Dewpoint Depression Visibility Wind Speed Wind Dir Waves Ship Positions

Miniplon

Last reported at 2017-May-26 19:14 UTC. Time now 2017-May-27 13:50 UTC.
Position N 46°30' W 001°47'.

Type: SAR. MMSI: 228024600.

Date/timePositionNaut miles runAvg speedWind from/ knotsBaromVisibWave heightAir tempDewpointWater temp
2017-May-26 19:14N 46°30' W 001°47'0 0.7
2017-May-26 18:59N 46°30' W 001°47'1 2.8
2017-May-26 18:30N 46°29' W 001°49'4 8.6
2017-May-26 18:00N 46°32' W 001°53'510.4
2017-May-26 17:30N 46°37' W 001°55'3 4.1
2017-May-26 16:39N 46°41' W 001°56'1 4.3
2017-May-26 16:21N 46°42' W 001°57'1 3.8
2017-May-26 16:00N 46°40' W 001°56'1 1.2
2017-May-26 15:26N 46°41' W 001°56'1 1.2
2017-May-26 14:59N 46°41' W 001°57'0 0.4
2017-May-26 14:00N 46°42' W 001°57'0 0.1
2017-May-26 12:38N 46°42' W 001°57'1 8.2
2017-May-26 12:29N 46°41' W 001°57'510.4
2017-May-26 12:00N 46°36' W 001°55'510.5
2017-May-26 11:30N 46°31' W 001°52'4 7.5
2017-May-26 11:00N 46°29' W 001°47'  
2017-May-23 13:59N 46°30' W 001°47'1 1.5
2017-May-23 13:30N 46°29' W 001°47'4 7.5
2017-May-23 13:00N 46°30' W 001°53'510.3
2017-May-23 12:30N 46°34' W 001°57'13 0.4
2017-May-22 08:02N 46°45' W 002°07'110.2
2017-May-22 07:59N 46°44' W 002°07'5 9.9
2017-May-22 07:30N 46°40' W 002°03'510.0
2017-May-22 07:00N 46°36' W 001°58'510.1
2017-May-22 06:30N 46°32' W 001°54'5 9.7
2017-May-22 06:00N 46°29' W 001°49'2 3.0
2017-May-22 05:28N 46°30' W 001°47'0 0.0
2017-May-22 04:58N 46°30' W 001°47'0 0.0
2017-May-22 04:30N 46°30' W 001°47'  
2017-May-19 10:19N 46°30' W 001°47'1 3.5
2017-May-19 10:00N 46°29' W 001°47'510.3
2017-May-19 09:30N 46°24' W 001°45'2 3.9
2017-May-19 09:00N 46°22' W 001°43'1 1.2
2017-May-19 08:30N 46°23' W 001°44'0 0.7
2017-May-19 08:00N 46°23' W 001°44'1 1.4
2017-May-19 07:30N 46°22' W 001°45'0 0.8
2017-May-19 07:00N 46°22' W 001°45'0 0.8
2017-May-19 06:30N 46°22' W 001°45'29 0.6
2017-May-17 06:08N 46°47' W 002°09'0 0.0
2017-May-17 05:38N 46°47' W 002°09'0 0.0
2017-May-17 05:20N 46°47' W 002°09'0 0.0
2017-May-17 04:32N 46°47' W 002°09'0 0.0
2017-May-17 04:29N 46°47' W 002°09'  
Track history (hours):
 
Tides and Currents Weather Stations Pressure Air Temp Water Temp Dewpoint Dewpoint Depression Visibility Wind Speed Wind Dir Waves Ship Positions

Miniplon

Last reported at 2017-May-26 19:14 UTC. Time now 2017-May-27 13:50 UTC.
Position N 46°30' W 001°47'.

Type: SAR. MMSI: 228024600.

Date/timePositionNaut miles runAvg speedWind from/ knotsBaromVisibWave heightAir tempDewpointWater temp
2017-May-26 19:14N 46°30' W 001°47'0 0.7
2017-May-26 18:59N 46°30' W 001°47'1 2.8
2017-May-26 18:30N 46°29' W 001°49'4 8.6
2017-May-26 18:00N 46°32' W 001°53'510.4
2017-May-26 17:30N 46°37' W 001°55'3 4.1
2017-May-26 16:39N 46°41' W 001°56'1 4.3
2017-May-26 16:21N 46°42' W 001°57'1 3.8
2017-May-26 16:00N 46°40' W 001°56'1 1.2
2017-May-26 15:26N 46°41' W 001°56'1 1.2
2017-May-26 14:59N 46°41' W 001°57'0 0.4
2017-May-26 14:00N 46°42' W 001°57'0 0.1
2017-May-26 12:38N 46°42' W 001°57'1 8.2
2017-May-26 12:29N 46°41' W 001°57'510.4
2017-May-26 12:00N 46°36' W 001°55'510.5
2017-May-26 11:30N 46°31' W 001°52'4 7.5
2017-May-26 11:00N 46°29' W 001°47'  
2017-May-23 13:59N 46°30' W 001°47'1 1.5
2017-May-23 13:30N 46°29' W 001°47'4 7.5
2017-May-23 13:00N 46°30' W 001°53'510.3
2017-May-23 12:30N 46°34' W 001°57'13 0.4
2017-May-22 08:02N 46°45' W 002°07'110.2
2017-May-22 07:59N 46°44' W 002°07'5 9.9
2017-May-22 07:30N 46°40' W 002°03'510.0
2017-May-22 07:00N 46°36' W 001°58'510.1
2017-May-22 06:30N 46°32' W 001°54'5 9.7
2017-May-22 06:00N 46°29' W 001°49'2 3.0
2017-May-22 05:28N 46°30' W 001°47'0 0.0
2017-May-22 04:58N 46°30' W 001°47'0 0.0
2017-May-22 04:30N 46°30' W 001°47'  
2017-May-19 10:19N 46°30' W 001°47'1 3.5
2017-May-19 10:00N 46°29' W 001°47'510.3
2017-May-19 09:30N 46°24' W 001°45'2 3.9
2017-May-19 09:00N 46°22' W 001°43'1 1.2
2017-May-19 08:30N 46°23' W 001°44'0 0.7
2017-May-19 08:00N 46°23' W 001°44'1 1.4
2017-May-19 07:30N 46°22' W 001°45'0 0.8
2017-May-19 07:00N 46°22' W 001°45'0 0.8
2017-May-19 06:30N 46°22' W 001°45'29 0.6
2017-May-17 06:08N 46°47' W 002°09'0 0.0
2017-May-17 05:38N 46°47' W 002°09'0 0.0
2017-May-17 05:20N 46°47' W 002°09'0 0.0
2017-May-17 04:32N 46°47' W 002°09'0 0.0
2017-May-17 04:29N 46°47' W 002°09'  

Dump ship's entire track history